createdAt,value
2019-03-01T00:00:57.851Z,13.00
2019-03-01T00:06:12.444Z,12.80
2019-03-01T00:11:51.458Z,12.90
2019-03-01T00:17:21.175Z,13.10
2019-03-01T00:22:38.696Z,12.70
2019-03-01T00:28:07.967Z,13.00
2019-03-01T00:33:28.101Z,12.90
2019-03-01T00:39:09.336Z,12.90
2019-03-01T00:44:39.536Z,12.80
2019-03-01T00:49:43.723Z,12.70
2019-03-01T00:54:47.834Z,12.90
2019-03-01T00:59:52.380Z,12.60
2019-03-01T01:04:56.575Z,12.90
2019-03-01T01:10:00.433Z,12.60
2019-03-01T01:15:04.773Z,12.60
2019-03-01T01:20:08.963Z,12.80
2019-03-01T01:25:12.962Z,12.60
2019-03-01T01:30:17.213Z,12.70
2019-03-01T01:35:21.593Z,12.50
2019-03-01T01:40:25.547Z,12.60
2019-03-01T01:45:29.639Z,12.90
2019-03-01T01:50:34.122Z,13.00
2019-03-01T01:55:38.035Z,12.70
2019-03-01T02:00:42.225Z,12.40
2019-03-01T02:05:46.580Z,12.50
2019-03-01T02:10:50.896Z,12.80
2019-03-01T02:15:55.162Z,12.40
2019-03-01T02:20:59.424Z,12.80
2019-03-01T02:26:03.336Z,12.80
2019-03-01T02:31:08.096Z,12.30
2019-03-01T02:36:12.195Z,12.50
2019-03-01T02:41:16.067Z,12.80
2019-03-01T02:46:20.240Z,12.60
2019-03-01T02:51:24.587Z,12.30
2019-03-01T02:56:28.976Z,12.40
2019-03-01T03:01:33.271Z,12.70
2019-03-01T03:06:45.295Z,12.40
2019-03-01T03:11:49.771Z,12.30
2019-03-01T03:16:54.145Z,12.40
2019-03-01T03:21:58.208Z,12.30
2019-03-01T03:27:02.570Z,12.80
2019-03-01T03:32:06.606Z,12.30
2019-03-01T03:37:10.912Z,12.50
2019-03-01T03:42:15.287Z,12.40
2019-03-01T03:47:19.831Z,12.60
2019-03-01T03:52:24.153Z,12.40
2019-03-01T03:57:28.792Z,12.40
2019-03-01T04:02:33.071Z,12.50
2019-03-01T04:07:37.639Z,12.50
2019-03-01T04:12:42.011Z,12.20
2019-03-01T04:17:47.548Z,12.30
2019-03-01T04:22:51.884Z,12.80
2019-03-01T04:27:56.656Z,12.30
2019-03-01T04:33:01.107Z,12.30
2019-03-01T04:38:05.243Z,12.50
2019-03-01T04:43:10.199Z,12.30
2019-03-01T04:48:14.531Z,12.40
2019-03-01T04:53:18.921Z,12.40
2019-03-01T04:58:23.524Z,12.40
2019-03-01T05:03:27.970Z,12.30
2019-03-01T05:08:32.495Z,12.30
2019-03-01T05:13:36.819Z,12.30
2019-03-01T05:18:41.150Z,12.30
2019-03-01T05:23:45.643Z,12.50
2019-03-01T05:28:49.991Z,12.30
2019-03-01T05:33:55.368Z,12.50
2019-03-01T05:38:59.884Z,12.30
2019-03-01T05:44:04.303Z,12.30
2019-03-01T05:49:08.910Z,12.50
2019-03-01T05:54:13.453Z,12.30
2019-03-01T05:59:20.691Z,12.30
2019-03-01T06:04:34.377Z,12.30
2019-03-01T06:10:25.135Z,12.20
2019-03-01T06:16:09.084Z,12.40
2019-03-01T06:22:03.592Z,12.20
2019-03-01T06:27:54.075Z,12.40
2019-03-01T06:33:47.316Z,12.40
2019-03-01T06:39:40.872Z,12.20
2019-03-01T06:45:25.116Z,12.20
2019-03-01T06:50:49.565Z,12.40
2019-03-01T06:55:57.503Z,12.20
2019-03-01T07:01:06.682Z,12.20
2019-03-01T07:06:11.023Z,12.50
2019-03-01T07:11:15.400Z,12.20
2019-03-01T07:16:19.587Z,12.20
2019-03-01T07:21:23.865Z,12.30
2019-03-01T07:26:27.907Z,12.30
2019-03-01T07:31:32.101Z,12.50
2019-03-01T07:36:36.375Z,12.30
2019-03-01T07:41:40.658Z,12.30
2019-03-01T07:46:52.598Z,12.30
2019-03-01T07:51:50.915Z,12.50
2019-03-01T07:56:54.964Z,12.30
2019-03-01T08:02:00.817Z,12.30
2019-03-01T08:07:05.207Z,12.30
2019-03-01T08:12:09.283Z,12.40
2019-03-01T08:17:13.743Z,12.60
2019-03-01T08:22:20.763Z,12.30
2019-03-01T08:27:25.289Z,12.30
2019-03-01T08:32:30.737Z,12.30
2019-03-01T08:37:35.816Z,12.20
2019-03-01T08:42:40.359Z,12.30
2019-03-01T08:47:44.960Z,12.50
2019-03-01T08:52:49.289Z,12.20
2019-03-01T08:57:53.998Z,12.50
2019-03-01T09:03:00.422Z,12.30
2019-03-01T09:08:04.972Z,12.40
2019-03-01T09:13:09.107Z,12.20
2019-03-01T09:18:14.628Z,12.30
2019-03-01T09:23:24.244Z,12.40
2019-03-01T09:28:25.827Z,12.30
2019-03-01T09:33:29.939Z,12.50
2019-03-01T09:38:34.168Z,12.30
2019-03-01T09:43:38.507Z,12.20
2019-03-01T09:48:45.630Z,12.30
2019-03-01T09:53:48.619Z,12.30
2019-03-01T09:58:52.896Z,12.20
2019-03-01T10:03:56.946Z,12.50
2019-03-01T10:09:01.759Z,12.30
2019-03-01T10:14:05.860Z,12.30
2019-03-01T10:19:10.223Z,12.30
2019-03-01T10:24:14.790Z,12.50
2019-03-01T10:29:19.294Z,12.50
2019-03-01T10:34:23.579Z,12.20
2019-03-01T10:39:27.811Z,12.30
2019-03-01T10:44:31.939Z,12.50
2019-03-01T10:49:36.191Z,12.20
2019-03-01T10:54:41.055Z,12.30
2019-03-01T10:59:45.323Z,12.20
2019-03-01T11:04:49.718Z,12.40
2019-03-01T11:09:54.579Z,12.30
2019-03-01T11:14:58.871Z,12.40
2019-03-01T11:20:03.114Z,12.20
2019-03-01T11:25:08.355Z,12.20
2019-03-01T11:30:17.942Z,12.30
2019-03-01T11:35:22.225Z,12.30
2019-03-01T11:40:31.083Z,12.20
2019-03-01T11:45:35.639Z,12.20
2019-03-01T11:50:39.760Z,12.30
2019-03-01T11:55:43.979Z,12.30
2019-03-01T12:00:52.248Z,12.30
2019-03-01T12:05:54.625Z,12.20
2019-03-01T12:10:58.994Z,12.30
2019-03-01T12:16:03.472Z,12.30
2019-03-01T12:21:07.980Z,12.20
2019-03-01T12:26:12.339Z,12.30
2019-03-01T12:31:16.450Z,12.40
2019-03-01T12:36:20.824Z,12.50
2019-03-01T12:41:24.887Z,12.40
2019-03-01T12:46:28.879Z,12.20
2019-03-01T12:51:33.241Z,12.30
2019-03-01T12:56:37.522Z,12.30
2019-03-01T13:01:43.184Z,12.20
2019-03-01T13:06:47.535Z,12.30
2019-03-01T13:11:52.130Z,12.30
2019-03-01T13:16:58.589Z,12.20
2019-03-01T13:22:02.137Z,12.20
2019-03-01T13:27:06.436Z,12.10
2019-03-01T13:32:10.661Z,11.90
2019-03-01T13:37:19.371Z,11.90
2019-03-01T13:42:21.240Z,11.80
2019-03-01T13:47:25.335Z,11.80
2019-03-01T13:52:31.047Z,11.60
2019-03-01T13:57:35.375Z,12.00
2019-03-01T14:02:39.744Z,11.90
2019-03-01T14:07:44.288Z,11.80
2019-03-01T14:12:48.819Z,11.80
2019-03-01T14:17:53.498Z,11.80
2019-03-01T14:22:58.036Z,12.00
2019-03-01T14:28:05.096Z,11.90
2019-03-01T14:33:08.432Z,11.80
2019-03-01T14:38:12.723Z,11.80
2019-03-01T14:43:20.275Z,12.00
2019-03-01T14:48:23.128Z,11.80
2019-03-01T14:53:31.041Z,11.50
2019-03-01T14:58:37.607Z,11.60
2019-03-01T15:03:42.142Z,11.70
2019-03-01T15:08:46.688Z,11.90
2019-03-01T15:13:52.743Z,11.90
2019-03-01T15:18:56.786Z,11.90
2019-03-01T15:24:01.500Z,11.50
2019-03-01T15:29:06.952Z,11.60
2019-03-01T15:34:11.294Z,11.80
2019-03-01T15:39:16.746Z,12.80
2019-03-01T15:44:21.674Z,12.20
2019-03-01T15:49:25.974Z,11.90
2019-03-01T15:54:32.503Z,11.80
2019-03-01T15:59:35.971Z,11.80
2019-03-01T16:04:41.944Z,12.00
2019-03-01T16:09:46.955Z,11.70
2019-03-01T16:14:51.537Z,11.80
2019-03-01T16:19:56.117Z,11.80
2019-03-01T16:25:00.287Z,11.80
2019-03-01T16:30:05.106Z,12.00
2019-03-01T16:35:09.903Z,11.90
2019-03-01T16:40:15.669Z,11.80
2019-03-01T16:45:21.176Z,11.80
2019-03-01T16:50:26.110Z,11.90
2019-03-01T16:55:30.195Z,11.60
2019-03-01T17:00:34.234Z,11.60
2019-03-01T17:05:39.638Z,11.80
2019-03-01T17:10:44.446Z,11.50
2019-03-01T17:15:49.301Z,11.60
2019-03-01T17:20:53.464Z,11.60
2019-03-01T17:25:58.447Z,11.50
2019-03-01T17:31:02.899Z,11.50
2019-03-01T17:36:07.009Z,11.60
2019-03-01T17:41:11.509Z,11.40
2019-03-01T17:46:16.135Z,11.40
2019-03-01T17:51:21.007Z,11.70
2019-03-01T17:56:25.904Z,11.60
2019-03-01T18:01:30.715Z,11.20
2019-03-01T18:06:34.707Z,11.50
2019-03-01T18:11:40.686Z,11.30
2019-03-01T18:16:45.279Z,11.40
2019-03-01T18:21:51.014Z,11.50
2019-03-01T18:26:55.714Z,11.20
2019-03-01T18:32:00.232Z,11.50
2019-03-01T18:37:15.618Z,11.10
2019-03-01T18:42:11.736Z,11.60
2019-03-01T18:47:16.353Z,13.20
2019-03-01T18:52:20.652Z,12.30
2019-03-01T18:57:25.535Z,12.00
2019-03-01T19:02:29.685Z,11.80
2019-03-01T19:07:34.267Z,12.00
2019-03-01T19:12:38.656Z,11.60
2019-03-01T19:17:44.539Z,11.50
2019-03-01T19:22:49.407Z,11.50
2019-03-01T19:27:53.867Z,11.50
2019-03-01T19:32:59.034Z,11.40
2019-03-01T19:38:04.291Z,11.10
2019-03-01T19:43:10.197Z,11.30
2019-03-01T19:48:14.592Z,11.20
2019-03-01T19:53:21.655Z,11.20
2019-03-01T19:58:25.053Z,11.20
2019-03-01T20:03:29.291Z,11.10
2019-03-01T20:08:33.575Z,11.10
2019-03-01T20:13:38.371Z,11.20
2019-03-01T20:18:45.010Z,11.20
2019-03-01T20:23:49.546Z,11.30
2019-03-01T20:28:53.790Z,11.10
2019-03-01T20:33:58.553Z,11.10
2019-03-01T20:39:04.800Z,11.20
2019-03-01T20:44:09.303Z,11.00
2019-03-01T20:49:13.615Z,11.20
2019-03-01T20:54:18.168Z,11.20
2019-03-01T20:59:22.496Z,11.10
2019-03-01T21:04:27.567Z,11.20
2019-03-01T21:09:32.099Z,11.10
2019-03-01T21:14:37.227Z,11.10
2019-03-01T21:19:43.817Z,11.10
2019-03-01T21:24:48.952Z,11.20
2019-03-01T21:29:53.380Z,11.10
2019-03-01T21:34:58.080Z,11.10
2019-03-01T21:40:03.267Z,11.10
2019-03-01T21:45:09.163Z,10.90
2019-03-01T21:50:13.574Z,10.90
2019-03-01T21:55:17.975Z,10.90
2019-03-01T22:00:25.492Z,10.90
2019-03-01T22:05:29.548Z,10.70
2019-03-01T22:10:35.684Z,10.90
2019-03-01T22:15:40.518Z,10.80
2019-03-01T22:20:45.736Z,10.80
2019-03-01T22:25:50.078Z,10.80
2019-03-01T22:30:56.515Z,10.90
2019-03-01T22:36:00.331Z,10.70
2019-03-01T22:41:04.975Z,10.80
2019-03-01T22:46:09.103Z,10.90
2019-03-01T22:51:14.463Z,10.80
2019-03-01T22:56:19.431Z,10.90
2019-03-01T23:01:41.651Z,10.80
2019-03-01T23:06:47.591Z,10.40
2019-03-01T23:11:52.820Z,10.60
2019-03-01T23:16:57.344Z,10.80
2019-03-01T23:22:01.864Z,10.70
2019-03-01T23:27:05.823Z,10.80
2019-03-01T23:32:11.806Z,10.80
2019-03-01T23:37:16.045Z,10.50
2019-03-01T23:42:20.800Z,10.80
2019-03-01T23:47:26.583Z,10.60
2019-03-01T23:52:30.783Z,10.40
2019-03-01T23:57:38.030Z,10.80
